North Vancouver, British Columbia

2:39 PM PST on February 13, 2016 (GMT -0800)
Westview Dr | | Change Station
CLOSE
Current Station
Personal Weather Station
Location: North Vancouver, BC
Elevation: 0 ft
Nearby Weather Stations

Elev 0 ft 49.33 °N, 123.09 °W | Updated 40 seconds ago

Light Rain
Light Rain
43.7 °F
Feels Like 44 °F
N
0.0
Wind Variable Wind from North
Gusts 0.0 mph

Today is forecast to be nearly the same temperature as yesterday.

Today
High -- | Low -- °F
--% Chance of Precip.
Yesterday
High -- | Low -- °F
Precip. -- in
Pressure 30.12 in
Visibility 6.0 miles
Clouds Scattered Clouds 1400 ft
Mostly Cloudy 2800 ft
Overcast 3800 ft
Windchill 44 °F
Dew Point 43 °F
Humidity 98%
Rainfall 0.33 in
Snow Depth Not available.
7:25 AM 5:28 PM
Waxing Crescent, 35% visible
METAR CYVR 132200Z 09009KT 6SM -RA SCT014 BKN028 OVC038 07/06 A3011 RMK CF3SC3SC2 PRESFR SLP197
Pressure 30.12 in
Visibility 6.0 miles
Clouds Scattered Clouds 1400 ft
Mostly Cloudy 2800 ft
Overcast 3800 ft
Windchill 44 °F
Dew Point 43 °F
Humidity 98%
Rainfall 0.33 in
Snow Depth Not available.
7:25 AM 5:28 PM
Waxing Crescent, 35% visible
METAR CYVR 132200Z 09009KT 6SM -RA SCT014 BKN028 OVC038 07/06 A3011 RMK CF3SC3SC2 PRESFR SLP197

10-Day Weather Forecast

Almanac

Astronomy

Feb. 13, 2016 Rise Set
Actual Time
Civil Twilight
Nautical Twilight
Astronomical Twilight
Moon
Length of Visible Light
Length of Day
Tomorrow will be .
, % of the Moon is Illuminated

Today's Extremes

Country Highs Country Lows

Community

WunderPhotos

Upload Photos

1,892,688 photos uploaded!

WunderBlog® & News

Nearby

Air Quality

  Air Quality AQ Index Pollutant
Not available.

Snow Depth

Station Depth Elevation

Earthquake Activity

City Distance Mag. Time & Date
Minimum magnitude displayed is 2.5.

Coastal Water Temperatures

Place Temperature

Stations

Nearby Weather Stations

Station Location Temp. Windchill Dew Point Humidity Wind Precip. Elev Updated Type
                   

Watches & Warnings

There are currently no watches in effect.